»·PEaware :: N973SE KSBP-KBFL

N973SE :: KSBP-KBFL

FLIGHT INFORMATION

Flight Status: Arrived
Operator: Privately registered:
United States
More flights under this callsign
Pilot: Stig E. (4778)
Aircraft: Unknown
(DA62)
More flights by this aircraft type
Origin: KSBP San Luis Co Regl
United States
Destination: KBFL Meadows
United States
More flights between these airports :: More routes between these airports
Route: FLW GMN FASTO2
File this flight plan on PilotEdge
Remarks:
Altitude:
(Current/Filed)
9,500ft
Speed:
(Current/Filed)
170kts
Departed: 11-Aug-18 04:36 AM
Arrived: 11-Aug-18 05:35 AM
Distance/Time
Traveled:
79nm/0:59
Distance/Time
To Go:
Arrived

Flight Plot

Page will automatically refresh every two minutes.

Flight plan parsing failed; only flown route is shown


Map Options




Map Legend


Flown Route
Filed Route
Departure Airport
Arrival Airport
Navaid (VOR, NDB)
Fix

Horizontal Profiles

Position Reports

Time Latitude Longitude Heading Altitude Ground
Speed
11-Aug-18 02:49 35.238073 -120.638652 270 196ft 0kts
11-Aug-18 02:50 35.238073 -120.638652 270 196ft 0kts
11-Aug-18 02:51 35.238073 -120.638652 270 196ft 0kts
11-Aug-18 02:52 35.238073 -120.638652 270 196ft 0kts
11-Aug-18 02:53 35.238073 -120.638652 270 196ft 0kts
11-Aug-18 02:54 35.238073 -120.638652 270 196ft 0kts
11-Aug-18 02:55 35.238073 -120.638652 270 196ft 0kts
11-Aug-18 02:56 35.238073 -120.638652 270 196ft 0kts
11-Aug-18 02:57 35.238073 -120.638652 270 196ft 0kts
11-Aug-18 02:58 35.238073 -120.638652 270 196ft 0kts
11-Aug-18 02:59 35.238073 -120.638652 270 196ft 0kts
11-Aug-18 03:00 35.238073 -120.638652 270 196ft 0kts
11-Aug-18 03:01 35.238073 -120.638652 270 196ft 0kts
11-Aug-18 03:02 35.238073 -120.638652 270 196ft 0kts
11-Aug-18 03:03 35.238073 -120.638652 270 196ft 0kts
11-Aug-18 03:04 35.238073 -120.638652 270 196ft 0kts
11-Aug-18 03:05 35.238073 -120.638652 270 196ft 0kts
11-Aug-18 03:06 35.238073 -120.638652 270 196ft 0kts
11-Aug-18 03:07 35.238073 -120.638652 270 196ft 0kts
11-Aug-18 03:08 35.238073 -120.638652 270 196ft 0kts
11-Aug-18 03:09 35.238073 -120.638652 270 196ft 0kts
11-Aug-18 03:10 35.238073 -120.638652 270 196ft 0kts
11-Aug-18 03:11 35.238073 -120.638652 270 196ft 0kts
11-Aug-18 03:12 35.238073 -120.638652 270 196ft 0kts
11-Aug-18 03:13 35.238073 -120.638652 270 196ft 0kts
11-Aug-18 03:14 35.238073 -120.638652 270 196ft 0kts
11-Aug-18 03:15 35.238073 -120.638652 270 196ft 0kts
11-Aug-18 03:16 35.238073 -120.638652 270 196ft 0kts
11-Aug-18 03:17 35.238073 -120.638652 270 196ft 0kts
11-Aug-18 03:18 35.238073 -120.638652 270 196ft 0kts
11-Aug-18 03:19 35.238073 -120.638652 270 196ft 0kts
11-Aug-18 03:20 35.238073 -120.638652 270 196ft 0kts
11-Aug-18 03:21 35.238073 -120.638652 270 196ft 0kts
11-Aug-18 03:22 35.238073 -120.638652 270 196ft 0kts
11-Aug-18 03:23 35.238073 -120.638652 270 196ft 0kts
11-Aug-18 03:24 35.238073 -120.638652 270 196ft 0kts
11-Aug-18 03:25 35.238073 -120.638652 270 196ft 0kts
11-Aug-18 03:26 35.237928 -120.638894 187 195ft 0kts
11-Aug-18 03:27 35.237928 -120.638894 187 195ft 0kts
11-Aug-18 03:28 35.237928 -120.638894 187 195ft 0kts
11-Aug-18 03:29 35.237928 -120.638894 187 195ft 0kts
11-Aug-18 03:30 35.237928 -120.638894 187 195ft 0kts
11-Aug-18 03:31 35.237928 -120.638894 187 195ft 0kts
11-Aug-18 03:32 35.237928 -120.638894 187 195ft 0kts
11-Aug-18 03:33 35.237928 -120.638894 187 195ft 0kts
11-Aug-18 03:34 35.237928 -120.638894 187 195ft 0kts
11-Aug-18 03:35 35.237928 -120.638894 187 195ft 0kts
11-Aug-18 03:36 35.237928 -120.638894 187 195ft 0kts
11-Aug-18 03:37 35.237547 -120.638960 187 195ft 0kts
11-Aug-18 03:38 35.237547 -120.638960 187 195ft 0kts
11-Aug-18 03:39 35.237510 -120.638967 188 195ft 0kts
11-Aug-18 03:40 35.235901 -120.636559 123 204ft 18kts
11-Aug-18 03:41 35.233228 -120.631901 190 213ft 3kts
11-Aug-18 03:42 35.233171 -120.631974 246 213ft 0kts
11-Aug-18 03:43 35.233171 -120.631974 246 213ft 0kts
11-Aug-18 03:44 35.233171 -120.631974 246 213ft 0kts
11-Aug-18 03:45 35.233171 -120.631974 246 213ft 0kts
11-Aug-18 03:46 35.233171 -120.631974 246 213ft 0kts
11-Aug-18 03:47 35.233171 -120.631974 246 213ft 0kts
11-Aug-18 03:48 35.233171 -120.631974 246 213ft 0kts
11-Aug-18 03:49 35.233171 -120.631974 246 213ft 0kts
11-Aug-18 03:50 35.233171 -120.631974 246 213ft 0kts
11-Aug-18 03:51 35.233171 -120.631974 246 213ft 0kts
11-Aug-18 03:52 35.233171 -120.631974 246 213ft 0kts
11-Aug-18 03:53 35.233171 -120.631974 246 213ft 0kts
11-Aug-18 03:54 35.233171 -120.631974 246 213ft 0kts
11-Aug-18 03:55 35.233171 -120.631974 246 213ft 0kts
11-Aug-18 03:56 35.233171 -120.631974 246 213ft 0kts
11-Aug-18 03:57 35.233171 -120.631974 246 213ft 0kts
11-Aug-18 03:58 35.233171 -120.631974 246 213ft 0kts
11-Aug-18 03:59 35.233171 -120.631974 246 213ft 0kts
11-Aug-18 04:00 35.233171 -120.631974 246 213ft 0kts
11-Aug-18 04:01 35.233171 -120.631974 246 213ft 0kts
11-Aug-18 04:02 35.233171 -120.631974 246 213ft 0kts
11-Aug-18 04:03 35.233171 -120.631974 246 213ft 0kts
11-Aug-18 04:04 35.233171 -120.631974 246 213ft 0kts
11-Aug-18 04:05 35.233171 -120.631974 246 213ft 0kts
11-Aug-18 04:06 35.233171 -120.631974 246 213ft 0kts
11-Aug-18 04:07 35.233171 -120.631974 246 213ft 0kts
11-Aug-18 04:08 35.233171 -120.631974 246 213ft 0kts
11-Aug-18 04:09 35.233171 -120.631974 246 213ft 0kts
11-Aug-18 04:10 35.233171 -120.631974 246 213ft 0kts
11-Aug-18 04:11 35.233171 -120.631974 246 213ft 0kts
11-Aug-18 04:12 35.233171 -120.631974 246 213ft 0kts
11-Aug-18 04:13 35.233171 -120.631974 246 213ft 0kts
11-Aug-18 04:14 35.233171 -120.631974 246 213ft 0kts
11-Aug-18 04:15 35.233171 -120.631974 246 213ft 0kts
11-Aug-18 04:16 35.233171 -120.631974 246 213ft 0kts
11-Aug-18 04:17 35.233171 -120.631974 246 213ft 0kts
11-Aug-18 04:18 35.233171 -120.631974 246 213ft 0kts
11-Aug-18 04:19 35.233171 -120.631974 246 213ft 0kts
11-Aug-18 04:20 35.233171 -120.631974 246 213ft 0kts
11-Aug-18 04:21 35.233171 -120.631974 246 213ft 0kts
11-Aug-18 04:22 35.233171 -120.631974 246 213ft 0kts
11-Aug-18 04:23 35.233171 -120.631974 246 213ft 0kts
11-Aug-18 04:24 35.233171 -120.631974 246 213ft 0kts
11-Aug-18 04:25 35.233171 -120.631974 246 213ft 0kts
11-Aug-18 04:26 35.233171 -120.631974 246 213ft 0kts
11-Aug-18 04:27 35.233171 -120.631974 246 213ft 0kts
11-Aug-18 04:28 35.233171 -120.631974 246 213ft 0kts
11-Aug-18 04:29 35.233171 -120.631974 246 213ft 0kts
11-Aug-18 04:30 35.233171 -120.631974 246 213ft 0kts
11-Aug-18 04:31 35.233171 -120.631974 246 213ft 0kts
11-Aug-18 04:32 35.233171 -120.631974 246 213ft 0kts
11-Aug-18 04:33 35.233171 -120.631974 246 213ft 0kts
11-Aug-18 04:34 35.233171 -120.631974 246 213ft 0kts
11-Aug-18 04:35 35.233171 -120.631974 246 213ft 0kts
11-Aug-18 04:36 35.233117 -120.632133 248 213ft 2kts
11-Aug-18 04:37 35.234539 -120.636068 305 205ft 72kts
11-Aug-18 04:38 35.248301 -120.661515 304 1054ft 97kts
11-Aug-18 04:39 35.252523 -120.690248 208 2237ft 109kts
11-Aug-18 04:40 35.227860 -120.689628 124 3487ft 104kts
11-Aug-18 04:41 35.212290 -120.662777 123 4802ft 97kts
11-Aug-18 04:42 35.196474 -120.635949 123 6030ft 98kts
11-Aug-18 04:43 35.191768 -120.603700 94 7246ft 98kts
11-Aug-18 04:44 35.188205 -120.570648 95 8453ft 99kts
11-Aug-18 04:45 35.184195 -120.536808 95 9495ft 115kts
11-Aug-18 04:46 35.178003 -120.487401 96 9503ft 162kts
11-Aug-18 04:47 35.170753 -120.432179 97 9502ft 165kts
11-Aug-18 04:48 35.164603 -120.385922 97 9504ft 165kts
11-Aug-18 04:49 35.155853 -120.321729 98 9507ft 166kts
11-Aug-18 04:50 35.148175 -120.266027 97 9508ft 166kts
11-Aug-18 04:51 35.141871 -120.219687 97 9509ft 166kts
11-Aug-18 04:52 35.134331 -120.164091 97 9509ft 166kts
11-Aug-18 04:53 35.125507 -120.099128 97 9509ft 166kts
11-Aug-18 04:54 35.117928 -120.043507 97 9509ft 166kts
11-Aug-18 04:55 35.111588 -119.997124 97 9509ft 166kts
11-Aug-18 04:56 35.103952 -119.941429 97 9509ft 166kts
11-Aug-18 04:57 35.095627 -119.876258 96 9509ft 166kts
11-Aug-18 04:58 35.084246 -119.831135 106 9509ft 167kts
11-Aug-18 04:59 35.069388 -119.777641 106 9563ft 165kts
11-Aug-18 05:00 35.054528 -119.724007 106 9556ft 167kts
11-Aug-18 05:01 35.039566 -119.670017 106 9542ft 168kts
11-Aug-18 05:02 35.024539 -119.615856 106 9529ft 168kts
11-Aug-18 05:03 35.009524 -119.561822 106 9519ft 168kts
11-Aug-18 05:04 34.994978 -119.509568 106 9512ft 169kts
11-Aug-18 05:05 34.979883 -119.455448 106 9512ft 168kts
11-Aug-18 05:06 34.964793 -119.401448 106 9511ft 168kts
11-Aug-18 05:07 34.949710 -119.347582 107 9507ft 168kts
11-Aug-18 05:08 34.934293 -119.293476 107 9503ft 169kts
11-Aug-18 05:09 34.919056 -119.239583 107 9500ft 169kts
11-Aug-18 05:10 34.903810 -119.185544 107 9500ft 169kts
11-Aug-18 05:11 34.888398 -119.131576 107 9499ft 169kts
11-Aug-18 05:12 34.873063 -119.077742 107 9500ft 169kts
11-Aug-18 05:13 34.857750 -119.023833 107 9511ft 168kts
11-Aug-18 05:14 34.839554 -118.971366 111 9554ft 167kts
11-Aug-18 05:15 34.820629 -118.919541 111 9596ft 167kts
11-Aug-18 05:16 34.801762 -118.868022 111 9642ft 166kts
11-Aug-18 05:17 34.820748 -118.835887 357 9603ft 164kts
11-Aug-18 05:18 34.866105 -118.844561 348 8996ft 166kts
11-Aug-18 05:19 34.910822 -118.854652 355 8419ft 164kts
11-Aug-18 05:20 34.955392 -118.858340 359 7856ft 162kts
11-Aug-18 05:21 35.000175 -118.859509 1 7300ft 161kts
11-Aug-18 05:22 35.044436 -118.859721 1 6759ft 159kts
11-Aug-18 05:23 35.088467 -118.859595 1 6215ft 159kts
11-Aug-18 05:24 35.132452 -118.859338 1 5680ft 159kts
11-Aug-18 05:25 35.176575 -118.859022 2 5148ft 159kts
11-Aug-18 05:26 35.220175 -118.858696 2 4806ft 149kts
11-Aug-18 05:27 35.258982 -118.858394 2 4826ft 122kts
11-Aug-18 05:28 35.285865 -118.872267 306 4548ft 116kts
11-Aug-18 05:29 35.306924 -118.902544 315 3978ft 115kts
11-Aug-18 05:30 35.328985 -118.929775 317 3378ft 111kts
11-Aug-18 05:31 35.350921 -118.956221 317 2772ft 110kts
11-Aug-18 05:32 35.372221 -118.981866 317 2174ft 104kts
11-Aug-18 05:33 35.392615 -119.006435 317 1627ft 98kts
11-Aug-18 05:34 35.411283 -119.028939 317 1102ft 93kts
11-Aug-18 05:35 35.429851 -119.051378 317 596ft 93kts
11-Aug-18 05:36 35.440376 -119.061870 127 497ft 14kts
11-Aug-18 05:37 35.437670 -119.057019 43 497ft 14kts
11-Aug-18 05:38 35.437924 -119.056486 129 497ft 0kts

Navigation Log

Ident Type
Flight plan parsing failed, navigation log unavailable